createdAt,value
2018-06-17T00:01:46.046Z,18.90
2018-06-17T00:04:14.549Z,18.70
2018-06-17T00:06:43.034Z,18.50
2018-06-17T00:09:11.523Z,18.50
2018-06-17T00:11:39.971Z,18.50
2018-06-17T00:14:08.454Z,18.40
2018-06-17T00:16:36.932Z,18.30
2018-06-17T00:19:05.639Z,18.20
2018-06-17T00:21:34.078Z,18.40
2018-06-17T00:24:02.538Z,18.40
2018-06-17T00:26:30.990Z,18.40
2018-06-17T00:28:59.516Z,18.20
2018-06-17T00:31:27.995Z,18.10
2018-06-17T00:33:56.470Z,18.00
2018-06-17T00:36:25.026Z,18.10
2018-06-17T00:38:53.549Z,18.00
2018-06-17T00:41:22.023Z,18.20
2018-06-17T00:43:50.469Z,18.00
2018-06-17T00:46:18.938Z,18.00
2018-06-17T00:48:47.377Z,18.20
2018-06-17T00:51:15.862Z,18.30
2018-06-17T00:53:44.310Z,18.30
2018-06-17T00:56:12.799Z,18.50
2018-06-17T00:58:41.300Z,18.60
2018-06-17T01:01:09.786Z,18.60
2018-06-17T01:03:38.299Z,18.40
2018-06-17T01:06:06.781Z,18.40
2018-06-17T01:08:35.250Z,18.20
2018-06-17T01:11:03.731Z,18.10
2018-06-17T01:13:32.174Z,17.70
2018-06-17T01:16:00.650Z,17.70
2018-06-17T01:18:29.113Z,17.70
2018-06-17T01:20:58.720Z,17.80
2018-06-17T01:23:27.209Z,17.90
2018-06-17T01:25:55.722Z,18.20
2018-06-17T01:28:24.173Z,17.90
2018-06-17T01:30:52.711Z,17.60
2018-06-17T01:33:21.149Z,17.70
2018-06-17T01:35:49.598Z,17.90
2018-06-17T01:38:17.993Z,18.00
2018-06-17T01:40:53.933Z,18.00
2018-06-17T01:43:22.392Z,17.90
2018-06-17T01:45:50.941Z,17.60
2018-06-17T01:50:47.519Z,17.70
2018-06-17T01:53:15.969Z,17.70
2018-06-17T01:55:44.470Z,17.60
2018-06-17T01:58:12.918Z,17.50
2018-06-17T02:00:41.385Z,17.50
2018-06-17T02:03:15.333Z,17.40
2018-06-17T02:05:49.177Z,17.70
2018-06-17T02:08:23.021Z,17.90
2018-06-17T02:10:56.884Z,17.80
2018-06-17T02:13:25.389Z,17.60
2018-06-17T02:15:53.838Z,17.70
2018-06-17T02:18:22.299Z,17.80
2018-06-17T02:20:50.778Z,17.90
2018-06-17T02:23:19.213Z,18.00
2018-06-17T02:25:47.673Z,17.90
2018-06-17T02:28:16.118Z,17.90
2018-06-17T02:30:44.582Z,17.90
2018-06-17T02:33:13.027Z,17.80
2018-06-17T02:35:41.489Z,17.70
2018-06-17T02:38:09.910Z,18.00
2018-06-17T02:40:38.343Z,18.00
2018-06-17T02:43:06.809Z,18.10
2018-06-17T02:45:40.693Z,18.10
2018-06-17T02:48:14.425Z,18.00
2018-06-17T02:50:48.366Z,18.10
2018-06-17T02:53:22.185Z,18.00
2018-06-17T02:55:50.627Z,18.00
2018-06-17T02:58:19.053Z,18.00
2018-06-17T03:00:47.514Z,17.90
2018-06-17T03:03:15.954Z,17.80
2018-06-17T03:05:44.397Z,17.90
2018-06-17T03:08:12.820Z,17.80
2018-06-17T03:10:41.271Z,17.90
2018-06-17T03:13:09.698Z,17.90
2018-06-17T03:15:38.166Z,17.90
2018-06-17T03:18:06.578Z,17.90
2018-06-17T03:20:35.089Z,17.90
2018-06-17T03:23:03.554Z,17.90
2018-06-17T03:25:37.490Z,17.70
2018-06-17T03:28:11.426Z,17.70
2018-06-17T03:30:45.034Z,17.80
2018-06-17T03:33:18.866Z,17.80
2018-06-17T03:35:52.691Z,17.80
2018-06-17T03:38:21.142Z,17.80
2018-06-17T03:40:49.586Z,17.70
2018-06-17T03:43:18.074Z,17.60
2018-06-17T03:45:46.530Z,17.50
2018-06-17T03:48:14.980Z,17.50
2018-06-17T03:50:43.405Z,17.50
2018-06-17T03:53:11.866Z,17.60
2018-06-17T03:55:40.304Z,17.70
2018-06-17T03:58:08.802Z,17.90
2018-06-17T04:00:37.241Z,17.70
2018-06-17T04:03:05.692Z,17.90
2018-06-17T04:05:34.153Z,18.00
2018-06-17T04:08:02.602Z,18.00
2018-06-17T04:10:31.042Z,17.90
2018-06-17T04:12:59.494Z,17.90
2018-06-17T04:15:27.934Z,17.70
2018-06-17T04:17:56.386Z,17.80
2018-06-17T04:20:24.862Z,17.80
2018-06-17T04:22:53.329Z,17.80
2018-06-17T04:25:21.838Z,17.70
2018-06-17T04:27:50.261Z,17.80
2018-06-17T04:30:18.693Z,17.80
2018-06-17T04:32:47.153Z,17.80
2018-06-17T04:35:15.628Z,17.90
2018-06-17T04:37:44.086Z,17.80
2018-06-17T04:40:12.513Z,17.70
2018-06-17T04:42:41.042Z,17.70
2018-06-17T04:45:09.494Z,17.90
2018-06-17T04:47:37.955Z,17.90
2018-06-17T04:50:06.468Z,17.90
2018-06-17T04:52:34.916Z,18.00
2018-06-17T04:55:03.382Z,18.20
2018-06-17T04:57:31.845Z,18.00
2018-06-17T05:00:00.289Z,18.00
2018-06-17T05:02:28.781Z,18.00
2018-06-17T05:04:57.225Z,18.10
2018-06-17T05:07:25.702Z,18.10
2018-06-17T05:09:54.261Z,18.20
2018-06-17T05:12:22.750Z,18.20
2018-06-17T05:14:51.216Z,18.10
2018-06-17T05:17:19.666Z,18.20
2018-06-17T05:19:48.113Z,18.10
2018-06-17T05:22:16.565Z,18.10
2018-06-17T05:24:45.041Z,18.00
2018-06-17T05:27:13.512Z,17.90
2018-06-17T05:29:41.975Z,17.80
2018-06-17T05:32:10.433Z,17.80
2018-06-17T05:34:38.893Z,17.80
2018-06-17T05:37:07.382Z,17.90
2018-06-17T05:39:35.812Z,17.90
2018-06-17T05:42:04.285Z,18.10
2018-06-17T05:44:32.709Z,18.20
2018-06-17T05:47:01.174Z,18.30
2018-06-17T05:49:29.600Z,18.40
2018-06-17T05:51:58.030Z,18.60
2018-06-17T05:54:26.465Z,18.70
2018-06-17T05:56:54.908Z,18.80
2018-06-17T05:59:23.348Z,19.00
2018-06-17T06:01:51.757Z,19.10
2018-06-17T06:04:20.196Z,19.30
2018-06-17T06:06:48.605Z,19.30
2018-06-17T06:09:17.037Z,19.50
2018-06-17T06:14:13.599Z,19.50
2018-06-17T06:16:42.007Z,19.40
2018-06-17T06:19:10.477Z,19.70
2018-06-17T06:21:38.916Z,19.80
2018-06-17T06:24:07.376Z,20.10
2018-06-17T06:26:35.817Z,20.10
2018-06-17T06:29:04.282Z,20.40
2018-06-17T06:31:32.690Z,20.50
2018-06-17T06:34:01.161Z,20.50
2018-06-17T06:36:29.727Z,20.70
2018-06-17T06:38:58.185Z,20.60
2018-06-17T06:41:26.619Z,20.50
2018-06-17T06:43:55.096Z,20.70
2018-06-17T06:46:23.568Z,20.50
2018-06-17T06:48:52.041Z,20.30
2018-06-17T06:51:20.517Z,20.40
2018-06-17T06:53:49.015Z,20.30
2018-06-17T06:56:17.450Z,20.20
2018-06-17T06:58:45.896Z,20.00
2018-06-17T07:01:24.309Z,20.00
2018-06-17T07:04:04.134Z,20.30
2018-06-17T07:06:43.774Z,20.70
2018-06-17T07:09:23.310Z,20.90
2018-06-17T07:11:51.750Z,20.80
2018-06-17T07:14:20.492Z,20.70
2018-06-17T07:17:00.344Z,21.00
2018-06-17T07:19:28.797Z,21.00
2018-06-17T07:21:57.323Z,21.20
2018-06-17T07:24:25.745Z,21.10
2018-06-17T07:27:05.466Z,21.00
2018-06-17T07:29:41.868Z,21.40
2018-06-17T07:32:10.354Z,21.60
2018-06-17T07:37:07.017Z,22.00
2018-06-17T07:41:44.848Z,22.30
2018-06-17T07:44:13.312Z,22.40
2018-06-17T07:46:41.782Z,22.10
2018-06-17T07:50:28.349Z,22.30
2018-06-17T07:53:08.109Z,22.70
2018-06-17T07:55:36.566Z,22.90
2018-06-17T07:58:05.091Z,22.90
2018-06-17T08:00:33.548Z,22.50
2018-06-17T08:03:01.994Z,22.80
2018-06-17T08:05:30.463Z,22.70
2018-06-17T08:07:58.921Z,22.90
2018-06-17T08:10:27.407Z,22.80
2018-06-17T08:12:55.832Z,22.70
2018-06-17T08:15:24.948Z,23.20
2018-06-17T08:17:53.364Z,23.10
2018-06-17T08:20:21.794Z,22.90
2018-06-17T08:22:50.209Z,22.80
2018-06-17T08:25:18.657Z,23.00
2018-06-17T08:27:47.053Z,22.80
2018-06-17T08:30:15.493Z,23.20
2018-06-17T08:32:43.966Z,23.20
2018-06-17T08:35:12.418Z,22.80
2018-06-17T08:37:40.817Z,23.10
2018-06-17T08:40:09.293Z,23.70
2018-06-17T08:42:37.700Z,23.70
2018-06-17T08:45:06.144Z,23.80
2018-06-17T08:47:34.559Z,23.80
2018-06-17T08:50:03.025Z,23.50
2018-06-17T08:52:31.466Z,23.10
2018-06-17T08:54:59.912Z,23.10
2018-06-17T08:57:28.332Z,23.60
2018-06-17T08:59:56.758Z,23.70
2018-06-17T09:02:25.201Z,23.50
2018-06-17T09:04:53.636Z,23.40
2018-06-17T09:07:22.049Z,23.40
2018-06-17T09:09:50.509Z,23.90
2018-06-17T09:12:18.983Z,23.80
2018-06-17T09:14:47.386Z,24.20
2018-06-17T09:17:15.818Z,24.30
2018-06-17T09:19:44.230Z,24.00
2018-06-17T09:22:12.666Z,23.80
2018-06-17T09:24:41.077Z,23.80
2018-06-17T09:27:09.965Z,24.30
2018-06-17T09:29:38.380Z,24.50
2018-06-17T09:32:07.258Z,25.00
2018-06-17T09:34:35.670Z,24.80
2018-06-17T09:37:04.102Z,24.10
2018-06-17T09:39:32.545Z,23.90
2018-06-17T09:42:00.977Z,24.00
2018-06-17T09:44:29.441Z,24.50
2018-06-17T09:46:57.919Z,24.20
2018-06-17T09:49:26.335Z,24.10
2018-06-17T09:51:54.816Z,24.10
2018-06-17T09:54:23.264Z,23.80
2018-06-17T09:56:51.695Z,24.10
2018-06-17T09:59:20.121Z,24.60
2018-06-17T10:01:48.653Z,24.90
2018-06-17T10:04:17.117Z,24.30
2018-06-17T10:06:45.500Z,24.00
2018-06-17T10:09:13.905Z,23.20
2018-06-17T10:11:42.335Z,23.30
2018-06-17T10:14:10.742Z,23.60
2018-06-17T10:16:39.181Z,24.20
2018-06-17T10:19:07.610Z,24.90
2018-06-17T10:21:36.029Z,25.10
2018-06-17T10:24:04.441Z,25.30
2018-06-17T10:26:33.240Z,25.30
2018-06-17T10:29:02.320Z,24.50
2018-06-17T10:31:30.749Z,24.10
2018-06-17T10:33:59.172Z,24.00
2018-06-17T10:36:27.617Z,24.60
2018-06-17T10:38:56.028Z,24.70
2018-06-17T10:41:24.466Z,24.30
2018-06-17T10:43:52.905Z,24.10
2018-06-17T10:46:21.377Z,24.00
2018-06-17T10:48:49.810Z,24.00
2018-06-17T10:51:18.243Z,24.00
2018-06-17T10:53:46.734Z,24.00
2018-06-17T10:56:15.212Z,24.50
2018-06-17T10:58:43.573Z,24.30
2018-06-17T11:01:12.018Z,24.30
2018-06-17T11:03:40.460Z,24.20
2018-06-17T11:06:08.874Z,23.70
2018-06-17T11:08:37.317Z,23.90
2018-06-17T11:11:05.790Z,23.70
2018-06-17T11:13:34.689Z,23.90
2018-06-17T11:16:03.328Z,23.80
2018-06-17T11:18:31.744Z,24.00
2018-06-17T11:21:00.298Z,23.90
2018-06-17T11:23:28.841Z,24.10
2018-06-17T11:25:57.265Z,24.30
2018-06-17T11:28:25.705Z,25.20
2018-06-17T11:30:54.125Z,25.60
2018-06-17T11:33:22.555Z,26.10
2018-06-17T11:35:51.030Z,26.60
2018-06-17T11:38:19.497Z,27.20
2018-06-17T11:40:47.928Z,27.20
2018-06-17T11:43:16.381Z,26.50
2018-06-17T11:45:44.882Z,25.50
2018-06-17T11:48:13.350Z,25.50
2018-06-17T11:50:41.801Z,25.80
2018-06-17T11:53:10.288Z,26.30
2018-06-17T11:55:38.796Z,26.00
2018-06-17T11:58:07.278Z,25.40
2018-06-17T12:00:35.747Z,24.60
2018-06-17T12:03:04.222Z,24.40
2018-06-17T12:05:32.941Z,24.60
2018-06-17T12:08:01.406Z,24.80
2018-06-17T12:10:29.889Z,24.40
2018-06-17T12:12:58.330Z,24.40
2018-06-17T12:15:26.831Z,24.70
2018-06-17T12:17:55.348Z,24.70
2018-06-17T12:20:23.889Z,24.80
2018-06-17T12:22:52.390Z,24.70
2018-06-17T12:25:20.906Z,24.30
2018-06-17T12:27:50.313Z,24.10
2018-06-17T12:30:18.793Z,24.10
2018-06-17T12:32:47.294Z,24.40
2018-06-17T12:35:15.789Z,24.70
2018-06-17T12:37:44.238Z,25.00
2018-06-17T12:40:12.718Z,25.00
2018-06-17T12:42:41.178Z,25.20
2018-06-17T12:45:09.683Z,25.20
2018-06-17T12:47:38.167Z,25.20
2018-06-17T12:50:06.634Z,25.10
2018-06-17T12:52:35.240Z,25.00
2018-06-17T12:55:03.861Z,25.30
2018-06-17T12:57:32.338Z,24.90
2018-06-17T13:00:00.886Z,25.10
2018-06-17T13:02:29.342Z,24.90
2018-06-17T13:04:58.140Z,24.80
2018-06-17T13:07:27.278Z,24.50
2018-06-17T13:09:55.756Z,24.30
2018-06-17T13:12:24.298Z,24.20
2018-06-17T13:14:52.815Z,24.30
2018-06-17T13:17:21.326Z,24.20
2018-06-17T13:19:49.806Z,24.30
2018-06-17T13:22:18.276Z,24.50
2018-06-17T13:24:46.738Z,24.40
2018-06-17T13:27:16.022Z,24.60
2018-06-17T13:29:44.470Z,24.50
2018-06-17T13:32:12.959Z,24.50
2018-06-17T13:37:09.603Z,24.30
2018-06-17T13:39:38.079Z,23.90
2018-06-17T13:42:06.590Z,23.70
2018-06-17T13:44:35.095Z,23.60
2018-06-17T13:47:03.643Z,23.30
2018-06-17T13:49:32.119Z,23.30
2018-06-17T13:52:00.585Z,23.30
2018-06-17T13:54:29.027Z,23.60
2018-06-17T13:56:57.509Z,23.50
2018-06-17T13:59:25.987Z,23.50
2018-06-17T14:01:54.466Z,23.40
2018-06-17T14:04:22.945Z,23.60
2018-06-17T14:06:51.413Z,23.90
2018-06-17T14:09:19.858Z,24.10
2018-06-17T14:11:48.358Z,24.30
2018-06-17T14:14:16.842Z,24.50
2018-06-17T14:16:45.390Z,24.50
2018-06-17T14:19:13.846Z,24.50
2018-06-17T14:21:42.337Z,24.90
2018-06-17T14:24:10.836Z,24.90
2018-06-17T14:26:39.321Z,24.90
2018-06-17T14:29:07.797Z,24.70
2018-06-17T14:31:36.306Z,24.40
2018-06-17T14:34:04.783Z,23.90
2018-06-17T14:36:33.286Z,23.20
2018-06-17T14:39:01.732Z,22.90
2018-06-17T14:41:30.230Z,23.00
2018-06-17T14:44:04.121Z,23.00
2018-06-17T14:46:37.996Z,23.20
2018-06-17T14:49:11.683Z,23.60
2018-06-17T14:51:45.374Z,23.80
2018-06-17T14:54:13.789Z,24.00
2018-06-17T14:56:42.230Z,23.90
2018-06-17T14:59:10.653Z,23.60
2018-06-17T15:01:39.114Z,23.70
2018-06-17T15:04:07.537Z,23.60
2018-06-17T15:06:35.991Z,23.30
2018-06-17T15:09:07.529Z,23.40
2018-06-17T15:11:35.983Z,23.30
2018-06-17T15:14:04.589Z,23.20
2018-06-17T15:16:33.067Z,23.20
2018-06-17T15:19:01.498Z,23.20
2018-06-17T15:21:29.957Z,23.20
2018-06-17T15:23:58.430Z,23.50
2018-06-17T15:26:26.870Z,23.50
2018-06-17T15:28:55.350Z,23.70
2018-06-17T15:31:29.231Z,24.20
2018-06-17T15:34:03.041Z,24.80
2018-06-17T15:36:36.778Z,25.30
2018-06-17T15:39:12.534Z,25.50
2018-06-17T15:41:41.086Z,25.20
2018-06-17T15:44:09.563Z,25.10
2018-06-17T15:46:38.015Z,25.10
2018-06-17T15:49:06.497Z,25.50
2018-06-17T15:51:34.942Z,25.50
2018-06-17T15:54:03.422Z,25.10
2018-06-17T15:56:31.843Z,24.50
2018-06-17T15:59:00.300Z,24.00
2018-06-17T16:01:28.817Z,23.40
2018-06-17T16:03:57.269Z,23.40
2018-06-17T16:06:25.713Z,23.70
2018-06-17T16:08:54.177Z,23.90
2018-06-17T16:11:22.610Z,24.00
2018-06-17T16:13:56.374Z,24.00
2018-06-17T16:16:30.025Z,23.80
2018-06-17T16:19:03.733Z,23.70
2018-06-17T16:21:32.159Z,23.60
2018-06-17T16:26:28.778Z,23.60
2018-06-17T16:28:57.227Z,23.50
2018-06-17T16:31:25.651Z,23.40
2018-06-17T16:33:54.170Z,23.20
2018-06-17T16:36:22.662Z,23.20
2018-06-17T16:38:51.151Z,23.20
2018-06-17T16:41:19.620Z,22.90
2018-06-17T16:43:48.117Z,22.80
2018-06-17T16:46:16.642Z,22.70
2018-06-17T16:48:45.123Z,22.70
2018-06-17T16:53:24.008Z,22.40
2018-06-17T16:55:57.765Z,22.30
2018-06-17T16:58:35.140Z,22.00
2018-06-17T17:01:04.798Z,22.10
2018-06-17T17:03:33.284Z,22.00
2018-06-17T17:06:01.841Z,22.00
2018-06-17T17:08:30.369Z,22.10
2018-06-17T17:10:58.858Z,22.00
2018-06-17T17:13:27.346Z,22.20
2018-06-17T17:15:55.843Z,22.20
2018-06-17T17:18:24.301Z,22.30
2018-06-17T17:20:52.851Z,22.10
2018-06-17T17:23:21.407Z,22.20
2018-06-17T17:25:49.826Z,22.30
2018-06-17T17:28:18.281Z,22.30
2018-06-17T17:30:48.461Z,22.10
2018-06-17T17:33:22.195Z,22.20
2018-06-17T17:35:56.088Z,22.00
2018-06-17T17:38:28.472Z,21.80
2018-06-17T17:41:00.047Z,21.80
2018-06-17T17:43:28.694Z,22.00
2018-06-17T17:46:02.372Z,22.00
2018-06-17T17:48:31.033Z,22.00
2018-06-17T17:50:59.854Z,22.00
2018-06-17T17:53:28.490Z,21.90
2018-06-17T17:55:56.958Z,21.80
2018-06-17T17:58:25.407Z,21.80
2018-06-17T18:00:53.941Z,21.70
2018-06-17T18:03:22.723Z,21.90
2018-06-17T18:05:51.257Z,21.90
2018-06-17T18:08:19.711Z,21.90
2018-06-17T18:10:48.196Z,22.00
2018-06-17T18:13:16.689Z,22.10
2018-06-17T18:15:45.443Z,22.20
2018-06-17T18:18:13.902Z,22.10
2018-06-17T18:20:42.430Z,22.10
2018-06-17T18:23:10.847Z,22.00
2018-06-17T18:25:44.577Z,22.00
2018-06-17T18:28:18.322Z,21.90
2018-06-17T18:31:00.025Z,21.70
2018-06-17T18:33:33.778Z,21.70
2018-06-17T18:36:09.330Z,21.70
2018-06-17T18:38:39.309Z,21.70
2018-06-17T18:41:07.856Z,21.40
2018-06-17T18:43:36.401Z,21.30
2018-06-17T18:46:04.911Z,21.20
2018-06-17T18:48:33.389Z,21.20
2018-06-17T18:51:01.858Z,21.10
2018-06-17T18:53:30.338Z,21.00
2018-06-17T18:55:58.804Z,20.80
2018-06-17T18:58:27.295Z,20.40
2018-06-17T19:00:55.782Z,20.50
2018-06-17T19:03:24.818Z,20.50
2018-06-17T19:05:53.394Z,20.50
2018-06-17T19:08:27.293Z,20.30
2018-06-17T19:11:01.137Z,20.40
2018-06-17T19:13:34.930Z,20.50
2018-06-17T19:16:11.022Z,20.40
2018-06-17T19:18:39.489Z,20.40
2018-06-17T19:21:07.959Z,20.30
2018-06-17T19:23:36.434Z,20.10
2018-06-17T19:26:04.949Z,20.00
2018-06-17T19:28:33.417Z,20.10
2018-06-17T19:31:01.880Z,20.10
2018-06-17T19:33:30.346Z,20.10
2018-06-17T19:35:58.819Z,20.10
2018-06-17T19:38:27.358Z,20.20
2018-06-17T19:40:55.868Z,20.20
2018-06-17T19:43:24.390Z,19.90
2018-06-17T19:45:52.838Z,19.90
2018-06-17T19:48:21.304Z,19.90
2018-06-17T19:50:55.090Z,19.70
2018-06-17T19:53:28.889Z,19.70
2018-06-17T19:56:02.711Z,19.60
2018-06-17T19:58:36.652Z,19.60
2018-06-17T20:01:05.526Z,19.60
2018-06-17T20:03:33.989Z,19.80
2018-06-17T20:06:02.523Z,19.90
2018-06-17T20:08:30.950Z,19.80
2018-06-17T20:10:59.446Z,19.80
2018-06-17T20:13:27.905Z,19.80
2018-06-17T20:15:56.390Z,19.70
2018-06-17T20:18:24.858Z,19.50
2018-06-17T20:20:53.375Z,19.20
2018-06-17T20:23:21.830Z,19.10
2018-06-17T20:25:50.381Z,19.10
2018-06-17T20:28:18.829Z,19.10
2018-06-17T20:30:47.349Z,19.20
2018-06-17T20:33:21.136Z,19.20
2018-06-17T20:35:54.954Z,19.20
2018-06-17T20:38:28.748Z,18.90
2018-06-17T20:42:00.095Z,18.80
2018-06-17T20:44:28.553Z,19.00
2018-06-17T20:46:57.047Z,18.60
2018-06-17T20:49:25.513Z,18.50
2018-06-17T20:51:53.985Z,18.60
2018-06-17T20:54:22.543Z,18.40
2018-06-17T20:56:51.022Z,18.30
2018-06-17T20:59:19.479Z,18.10
2018-06-17T21:01:48.022Z,18.10
2018-06-17T21:04:16.611Z,18.40
2018-06-17T21:06:45.115Z,18.30
2018-06-17T21:09:13.581Z,18.30
2018-06-17T21:11:42.053Z,18.30
2018-06-17T21:14:10.528Z,18.20
2018-06-17T21:16:38.990Z,18.10
2018-06-17T21:19:12.793Z,18.30
2018-06-17T21:21:46.685Z,18.30
2018-06-17T21:24:20.364Z,18.00
2018-06-17T21:26:54.347Z,18.00
2018-06-17T21:29:23.034Z,18.10
2018-06-17T21:31:51.560Z,18.00
2018-06-17T21:34:20.000Z,17.90
2018-06-17T21:36:48.545Z,17.90
2018-06-17T21:39:16.951Z,18.00
2018-06-17T21:41:45.411Z,18.00
2018-06-17T21:44:13.843Z,18.00
2018-06-17T21:46:42.340Z,18.00
2018-06-17T21:49:10.757Z,17.90
2018-06-17T21:51:39.197Z,18.20
2018-06-17T21:56:35.774Z,18.10
2018-06-17T21:59:04.488Z,18.10
2018-06-17T22:01:32.950Z,18.00
2018-06-17T22:04:06.788Z,18.00
2018-06-17T22:06:35.321Z,17.80
2018-06-17T22:09:09.589Z,17.70
2018-06-17T22:11:43.446Z,17.60
2018-06-17T22:14:17.298Z,17.30
2018-06-17T22:16:51.069Z,17.70
2018-06-17T22:19:19.501Z,17.60
2018-06-17T22:21:47.965Z,17.80
2018-06-17T22:24:16.382Z,17.80
2018-06-17T22:26:44.802Z,17.60
2018-06-17T22:29:13.296Z,17.70
2018-06-17T22:31:41.745Z,17.70
2018-06-17T22:34:10.189Z,17.80
2018-06-17T22:36:38.698Z,17.70
2018-06-17T22:39:08.558Z,17.80
2018-06-17T22:41:37.269Z,17.50
2018-06-17T22:44:05.758Z,17.50
2018-06-17T22:46:34.214Z,17.50
2018-06-17T22:49:02.687Z,17.60
2018-06-17T22:51:31.174Z,17.30
2018-06-17T22:54:10.722Z,17.40
2018-06-17T22:56:44.346Z,17.10
2018-06-17T22:59:18.333Z,17.20
2018-06-17T23:01:52.181Z,17.40
2018-06-17T23:04:26.014Z,17.50
2018-06-17T23:06:59.772Z,17.30
2018-06-17T23:09:33.601Z,17.20
2018-06-17T23:12:02.281Z,17.40
2018-06-17T23:14:30.767Z,17.30
2018-06-17T23:16:59.233Z,17.20
2018-06-17T23:19:27.726Z,17.10
2018-06-17T23:21:56.165Z,17.10
2018-06-17T23:24:25.522Z,17.00
2018-06-17T23:26:54.022Z,17.00
2018-06-17T23:29:22.777Z,17.20
2018-06-17T23:31:51.223Z,17.00
2018-06-17T23:34:20.511Z,16.70
2018-06-17T23:36:49.234Z,16.50
2018-06-17T23:39:17.735Z,16.40
2018-06-17T23:41:46.225Z,16.40
2018-06-17T23:44:14.706Z,16.50
2018-06-17T23:46:48.570Z,16.60
2018-06-17T23:49:22.413Z,16.60
2018-06-17T23:51:56.277Z,16.50
2018-06-17T23:54:30.037Z,16.40
2018-06-17T23:56:58.513Z,16.50
2018-06-17T23:59:27.008Z,16.10
